createdAt,value
2023-03-18T00:58:09.137Z,5.2
2023-03-18T00:58:15.260Z,5.2
2023-03-18T01:13:17.637Z,5.2
2023-03-18T01:28:19.191Z,5.2
2023-03-18T01:58:17.455Z,5.1
2023-03-18T01:58:23.462Z,5.1
2023-03-18T02:13:32.537Z,5.1
2023-03-18T02:58:17.156Z,5.1
2023-03-18T02:58:23.241Z,5.1
2023-03-18T04:58:37.135Z,4.8
2023-03-18T04:58:43.294Z,4.8
2023-03-18T05:13:46.342Z,4.8
2023-03-18T05:28:47.449Z,4.8
2023-03-18T05:43:48.203Z,4.8
2023-03-18T06:59:03.638Z,4.6
2023-03-18T07:14:06.487Z,4.6
2023-03-18T07:59:07.668Z,4.6
2023-03-18T07:59:13.820Z,4.6
2023-03-18T08:14:15.675Z,4.6
2023-03-18T08:29:17.631Z,4.6
2023-03-18T08:44:17.758Z,4.6
2023-03-18T08:59:18.060Z,4.5
2023-03-18T08:59:24.954Z,4.5
2023-03-18T09:14:26.862Z,4.5
2023-03-18T09:29:27.818Z,4.5
2023-03-18T09:44:29.158Z,4.5
2023-03-18T09:59:34.211Z,4.5
2023-03-18T10:14:37.554Z,4.5
2023-03-18T10:29:38.247Z,4.5
2023-03-18T10:44:38.273Z,4.5
2023-03-18T10:59:37.815Z,4.7
2023-03-18T10:59:43.941Z,4.7
2023-03-18T11:14:46.749Z,4.7
2023-03-18T11:30:02.536Z,4.7
2023-03-18T11:44:48.599Z,4.7
2023-03-18T14:00:19.345Z,4.9
2023-03-18T14:00:25.470Z,4.9
2023-03-18T15:00:29.711Z,4.9
2023-03-18T15:00:35.848Z,4.9
2023-03-18T15:15:38.299Z,4.9
2023-03-18T15:30:38.492Z,4.9
2023-03-18T15:45:40.537Z,4.9
2023-03-18T16:00:29.110Z,4.9
2023-03-18T16:00:35.104Z,4.9
2023-03-18T16:15:37.285Z,4.9
2023-03-18T16:30:38.257Z,4.9
2023-03-18T16:45:53.788Z,5
2023-03-18T17:00:51.841Z,5.1
2023-03-18T17:00:58.272Z,5.1
2023-03-18T17:16:01.018Z,5.1
2023-03-18T17:31:02.058Z,5.1
2023-03-18T17:46:03.293Z,5.1
2023-03-18T18:01:23.760Z,5.1
2023-03-18T18:16:26.281Z,5.1
2023-03-18T18:31:26.969Z,5.1
2023-03-18T18:46:28.122Z,5.1
2023-03-18T19:01:08.367Z,5.1
2023-03-18T19:01:23.373Z,5.1
2023-03-18T19:16:26.557Z,5.1
2023-03-18T19:31:27.779Z,5.1
2023-03-18T19:46:28.483Z,5.1
2023-03-18T20:01:11.513Z,5.1
2023-03-18T20:01:17.760Z,5.1
2023-03-18T20:16:20.285Z,5.1
2023-03-18T20:31:21.190Z,5.1
2023-03-18T20:46:26.609Z,5.1
2023-03-18T21:01:31.755Z,5.1
2023-03-18T21:01:38.085Z,5.1
2023-03-18T22:01:55.608Z,5.1
2023-03-18T22:02:13.840Z,5.1
2023-03-18T22:17:30.420Z,5.1
2023-03-18T22:32:31.828Z,5.1
2023-03-18T22:47:18.278Z,5.1
2023-03-18T23:01:59.165Z,5.1
2023-03-18T23:17:01.794Z,5.1
2023-03-18T23:32:03.377Z,5.1
2023-03-18T23:47:18.683Z,5.1
